createdAt,value
2018-11-27T00:00:06.118Z,18.70
2018-11-27T00:02:47.189Z,18.63
2018-11-27T00:05:28.319Z,18.79
2018-11-27T00:08:09.000Z,18.77
2018-11-27T00:10:50.072Z,18.78
2018-11-27T00:13:31.079Z,18.83
2018-11-27T00:16:12.185Z,18.80
2018-11-27T00:18:53.151Z,18.80
2018-11-27T00:21:33.865Z,18.77
2018-11-27T00:24:15.393Z,18.80
2018-11-27T00:26:56.443Z,18.89
2018-11-27T00:29:37.514Z,18.72
2018-11-27T00:32:18.387Z,18.68
2018-11-27T00:34:59.452Z,18.75
2018-11-27T00:37:40.436Z,18.72
2018-11-27T00:40:21.645Z,18.63
2018-11-27T00:43:02.766Z,18.53
2018-11-27T00:45:43.844Z,18.53
2018-11-27T00:48:25.642Z,18.53
2018-11-27T00:51:06.827Z,18.52
2018-11-27T00:53:47.627Z,18.54
2018-11-27T00:56:29.153Z,18.59
2018-11-27T00:59:10.071Z,18.69
2018-11-27T01:01:51.400Z,18.72
2018-11-27T01:04:32.321Z,18.76
2018-11-27T01:07:14.030Z,18.76
2018-11-27T01:09:54.587Z,18.79
2018-11-27T01:12:35.507Z,18.89
2018-11-27T01:15:16.723Z,19.20
2018-11-27T01:17:58.116Z,19.55
2018-11-27T01:20:39.042Z,19.57
2018-11-27T01:23:20.385Z,19.55
2018-11-27T01:26:01.320Z,19.61
2018-11-27T01:28:42.451Z,19.75
2018-11-27T01:31:24.050Z,19.85
2018-11-27T01:34:05.187Z,19.93
2018-11-27T01:36:46.756Z,20.06
2018-11-27T01:43:38.596Z,20.66
2018-11-27T01:46:19.401Z,21.07
2018-11-27T01:48:59.873Z,21.62
2018-11-27T01:51:40.923Z,21.87
2018-11-27T01:54:22.261Z,22.12
2018-11-27T01:57:03.706Z,22.33
2018-11-27T02:02:28.887Z,22.75
2018-11-27T02:05:09.799Z,23.02
2018-11-27T02:07:51.318Z,23.43
2018-11-27T02:10:32.384Z,24.04
2018-11-27T02:13:13.593Z,24.62
2018-11-27T02:15:54.874Z,25.12
2018-11-27T02:18:36.000Z,25.48
2018-11-27T02:21:17.433Z,25.82
2018-11-27T02:23:58.919Z,26.11
2018-11-27T02:26:40.144Z,26.53
2018-11-27T02:29:22.232Z,26.91
2018-11-27T02:32:03.312Z,27.14
2018-11-27T02:34:45.118Z,27.58
2018-11-27T02:37:26.046Z,27.90
2018-11-27T02:40:06.758Z,28.08
2018-11-27T02:42:47.227Z,27.96
2018-11-27T02:45:28.647Z,28.15
2018-11-27T02:48:09.514Z,28.52
2018-11-27T02:50:50.908Z,28.50
2018-11-27T02:53:31.487Z,28.70
2018-11-27T02:56:12.921Z,28.96
2018-11-27T02:58:53.752Z,28.92
2018-11-27T03:01:35.677Z,28.96
2018-11-27T03:04:16.955Z,28.90
2018-11-27T03:06:57.757Z,28.39
2018-11-27T03:09:39.229Z,28.35
2018-11-27T03:12:19.958Z,28.55
2018-11-27T03:15:01.152Z,28.50
2018-11-27T03:17:41.924Z,28.72
2018-11-27T03:20:23.081Z,28.78
2018-11-27T03:23:04.082Z,28.75
2018-11-27T03:25:45.004Z,28.93
2018-11-27T03:28:26.001Z,28.50
2018-11-27T03:31:06.888Z,28.83
2018-11-27T03:33:47.871Z,28.88
2018-11-27T03:36:28.844Z,28.95
2018-11-27T03:39:09.758Z,28.85
2018-11-27T03:41:51.465Z,28.47
2018-11-27T03:44:32.323Z,28.40
2018-11-27T03:47:14.000Z,28.55
2018-11-27T03:49:54.912Z,28.58
2018-11-27T03:52:36.066Z,27.97
2018-11-27T03:55:17.586Z,28.78
2018-11-27T03:57:58.913Z,27.54
2018-11-27T04:00:40.115Z,28.26
2018-11-27T04:03:21.389Z,27.83
2018-11-27T04:06:02.242Z,28.07
2018-11-27T04:08:43.839Z,28.26
2018-11-27T04:11:25.150Z,28.15
2018-11-27T04:14:06.090Z,27.83
2018-11-27T04:16:46.760Z,27.56
2018-11-27T04:23:52.665Z,28.31
2018-11-27T04:26:33.206Z,28.22
2018-11-27T04:29:14.601Z,28.50
2018-11-27T04:31:55.165Z,28.17
2018-11-27T04:34:36.824Z,27.33
2018-11-27T04:37:17.806Z,27.34
2018-11-27T04:39:58.731Z,27.00
2018-11-27T04:42:39.680Z,27.33
2018-11-27T04:45:20.929Z,28.02
2018-11-27T04:48:01.631Z,28.58
2018-11-27T04:50:42.883Z,28.71
2018-11-27T04:53:23.847Z,28.70
2018-11-27T04:56:05.151Z,29.10
2018-11-27T04:58:46.121Z,28.87
2018-11-27T05:01:27.359Z,28.44
2018-11-27T05:04:08.161Z,28.28
2018-11-27T05:06:49.130Z,28.86
2018-11-27T05:09:30.315Z,29.20
2018-11-27T05:12:11.201Z,29.65
2018-11-27T05:14:52.478Z,29.48
2018-11-27T05:17:33.596Z,28.78
2018-11-27T05:20:14.402Z,29.53
2018-11-27T05:22:55.684Z,29.61
2018-11-27T05:29:49.453Z,28.95
2018-11-27T05:32:30.435Z,28.64
2018-11-27T05:35:11.681Z,28.51
2018-11-27T05:37:52.522Z,28.66
2018-11-27T05:40:33.940Z,28.96
2018-11-27T05:43:15.169Z,29.26
2018-11-27T05:45:56.476Z,29.43
2018-11-27T05:48:36.880Z,29.30
2018-11-27T05:51:17.755Z,28.81
2018-11-27T05:53:58.733Z,28.49
2018-11-27T05:56:39.885Z,28.53
2018-11-27T05:59:21.275Z,28.51
2018-11-27T06:02:02.573Z,28.56
2018-11-27T06:04:43.244Z,28.65
2018-11-27T06:07:24.652Z,29.26
2018-11-27T06:10:05.450Z,29.98
2018-11-27T06:12:47.083Z,30.33
2018-11-27T06:15:28.371Z,30.11
2018-11-27T06:18:09.602Z,29.51
2018-11-27T06:20:51.035Z,28.97
2018-11-27T06:23:32.830Z,29.43
2018-11-27T06:38:41.430Z,30.08
2018-11-27T06:41:22.250Z,29.77
2018-11-27T06:44:04.475Z,29.49
2018-11-27T06:46:45.456Z,28.58
2018-11-27T06:49:26.718Z,28.99
2018-11-27T06:52:07.249Z,29.56
2018-11-27T06:54:48.650Z,29.99
2018-11-27T06:57:29.609Z,29.95
2018-11-27T07:00:10.890Z,29.94
2018-11-27T07:02:51.523Z,29.20
2018-11-27T07:05:32.518Z,29.48
2018-11-27T07:08:13.764Z,29.45
2018-11-27T07:10:54.204Z,29.56
2018-11-27T07:13:35.092Z,28.92
2018-11-27T07:16:16.228Z,29.03
2018-11-27T07:18:57.117Z,28.77
2018-11-27T07:21:38.367Z,29.75
2018-11-27T07:24:20.010Z,29.81
2018-11-27T07:27:01.296Z,29.45
2018-11-27T07:29:41.774Z,29.31
2018-11-27T07:32:22.400Z,29.37
2018-11-27T07:35:03.874Z,29.29
2018-11-27T07:37:45.214Z,29.51
2018-11-27T07:40:25.852Z,30.14
